sensor_id;sensor_type;location;lat;lon;timestamp;P1;durP1;ratioP1;P2;durP2;ratioP2
30872;SDS011;17579;42.690;2.586;2022-09-09T00:01:26;1.30;;;0.82;;
30872;SDS011;17579;42.690;2.586;2022-09-09T00:04:05;1.45;;;1.00;;
30872;SDS011;17579;42.690;2.586;2022-09-09T00:06:43;1.05;;;0.90;;
30872;SDS011;17579;42.690;2.586;2022-09-09T00:09:17;1.95;;;0.90;;
30872;SDS011;17579;42.690;2.586;2022-09-09T00:11:51;2.70;;;1.10;;
30872;SDS011;17579;42.690;2.586;2022-09-09T00:14:26;2.03;;;0.85;;
30872;SDS011;17579;42.690;2.586;2022-09-09T00:20:11;2.35;;;0.80;;
30872;SDS011;17579;42.690;2.586;2022-09-09T00:22:47;1.08;;;0.98;;
30872;SDS011;17579;42.690;2.586;2022-09-09T00:25:37;1.02;;;0.80;;
30872;SDS011;17579;42.690;2.586;2022-09-09T00:28:13;2.25;;;0.75;;
30872;SDS011;17579;42.690;2.586;2022-09-09T00:30:43;1.42;;;0.95;;
30872;SDS011;17579;42.690;2.586;2022-09-09T00:33:13;1.15;;;0.90;;
30872;SDS011;17579;42.690;2.586;2022-09-09T00:35:45;1.25;;;1.13;;
30872;SDS011;17579;42.690;2.586;2022-09-09T00:41:10;0.70;;;0.70;;
30872;SDS011;17579;42.690;2.586;2022-09-09T00:43:42;0.90;;;0.60;;
30872;SDS011;17579;42.690;2.586;2022-09-09T00:55:05;3.78;;;1.00;;
30872;SDS011;17579;42.690;2.586;2022-09-09T00:57:40;1.92;;;0.90;;
30872;SDS011;17579;42.690;2.586;2022-09-09T01:00:20;2.85;;;0.90;;
30872;SDS011;17579;42.690;2.586;2022-09-09T01:03:02;0.80;;;0.80;;
30872;SDS011;17579;42.690;2.586;2022-09-09T01:11:38;1.40;;;0.88;;
30872;SDS011;17579;42.690;2.586;2022-09-09T01:17:20;1.70;;;0.80;;
30872;SDS011;17579;42.690;2.586;2022-09-09T01:19:58;1.65;;;1.10;;
30872;SDS011;17579;42.690;2.586;2022-09-09T01:22:57;1.95;;;0.85;;
30872;SDS011;17579;42.690;2.586;2022-09-09T01:28:32;1.45;;;0.93;;
30872;SDS011;17579;42.690;2.586;2022-09-09T01:31:00;1.52;;;1.00;;
30872;SDS011;17579;42.690;2.586;2022-09-09T01:33:29;2.17;;;0.82;;
30872;SDS011;17579;42.690;2.586;2022-09-09T01:35:56;1.02;;;0.80;;
30872;SDS011;17579;42.690;2.586;2022-09-09T01:38:26;0.82;;;0.73;;
30872;SDS011;17579;42.690;2.586;2022-09-09T01:40:54;1.98;;;1.05;;
30872;SDS011;17579;42.690;2.586;2022-09-09T01:43:20;2.85;;;1.00;;
30872;SDS011;17579;42.690;2.586;2022-09-09T01:45:48;1.30;;;0.82;;
30872;SDS011;17579;42.690;2.586;2022-09-09T01:48:16;2.28;;;1.20;;
30872;SDS011;17579;42.690;2.586;2022-09-09T01:50:44;2.60;;;1.10;;
30872;SDS011;17579;42.690;2.586;2022-09-09T01:53:09;3.45;;;0.90;;
30872;SDS011;17579;42.690;2.586;2022-09-09T01:55:38;1.42;;;0.93;;
30872;SDS011;17579;42.690;2.586;2022-09-09T02:01:08;2.08;;;1.00;;
30872;SDS011;17579;42.690;2.586;2022-09-09T02:03:51;1.33;;;0.90;;
30872;SDS011;17579;42.690;2.586;2022-09-09T02:09:00;0.68;;;0.60;;
30872;SDS011;17579;42.690;2.586;2022-09-09T02:11:29;1.45;;;0.80;;
30872;SDS011;17579;42.690;2.586;2022-09-09T02:13:57;2.05;;;0.70;;
30872;SDS011;17579;42.690;2.586;2022-09-09T02:19:11;0.80;;;0.75;;
30872;SDS011;17579;42.690;2.586;2022-09-09T02:21:50;2.25;;;1.05;;
30872;SDS011;17579;42.690;2.586;2022-09-09T02:24:19;1.33;;;0.80;;
30872;SDS011;17579;42.690;2.586;2022-09-09T02:26:45;3.95;;;0.70;;
30872;SDS011;17579;42.690;2.586;2022-09-09T02:29:21;1.05;;;0.70;;
30872;SDS011;17579;42.690;2.586;2022-09-09T02:31:50;3.33;;;1.00;;
30872;SDS011;17579;42.690;2.586;2022-09-09T02:34:20;0.80;;;0.80;;
30872;SDS011;17579;42.690;2.586;2022-09-09T02:36:49;1.85;;;0.90;;
30872;SDS011;17579;42.690;2.586;2022-09-09T02:39:18;1.42;;;0.90;;
30872;SDS011;17579;42.690;2.586;2022-09-09T02:41:44;2.80;;;0.90;;
30872;SDS011;17579;42.690;2.586;2022-09-09T02:44:13;0.82;;;0.80;;
30872;SDS011;17579;42.690;2.586;2022-09-09T02:46:55;0.80;;;0.80;;
30872;SDS011;17579;42.690;2.586;2022-09-09T02:52:52;6.25;;;1.10;;
30872;SDS011;17579;42.690;2.586;2022-09-09T02:55:33;1.05;;;0.80;;
30872;SDS011;17579;42.690;2.586;2022-09-09T02:58:05;4.18;;;1.20;;
30872;SDS011;17579;42.690;2.586;2022-09-09T03:00:35;1.63;;;0.80;;
30872;SDS011;17579;42.690;2.586;2022-09-09T03:03:05;2.42;;;0.95;;
30872;SDS011;17579;42.690;2.586;2022-09-09T03:05:31;0.90;;;0.80;;
30872;SDS011;17579;42.690;2.586;2022-09-09T03:07:57;1.08;;;0.80;;
30872;SDS011;17579;42.690;2.586;2022-09-09T03:10:23;2.83;;;1.13;;
30872;SDS011;17579;42.690;2.586;2022-09-09T03:12:49;1.23;;;0.82;;
30872;SDS011;17579;42.690;2.586;2022-09-09T03:15:15;1.58;;;1.00;;
30872;SDS011;17579;42.690;2.586;2022-09-09T03:17:41;2.42;;;0.93;;
30872;SDS011;17579;42.690;2.586;2022-09-09T03:20:07;2.05;;;0.93;;
30872;SDS011;17579;42.690;2.586;2022-09-09T03:22:33;1.42;;;0.82;;
30872;SDS011;17579;42.690;2.586;2022-09-09T03:25:00;2.80;;;0.98;;
30872;SDS011;17579;42.690;2.586;2022-09-09T03:27:27;3.17;;;0.90;;
30872;SDS011;17579;42.690;2.586;2022-09-09T03:29:53;3.90;;;1.00;;
30872;SDS011;17579;42.690;2.586;2022-09-09T03:32:19;4.28;;;0.80;;
30872;SDS011;17579;42.690;2.586;2022-09-09T03:34:47;0.82;;;0.80;;
30872;SDS011;17579;42.690;2.586;2022-09-09T03:37:15;1.38;;;1.05;;
30872;SDS011;17579;42.690;2.586;2022-09-09T03:39:42;1.85;;;1.00;;
30872;SDS011;17579;42.690;2.586;2022-09-09T03:42:08;2.30;;;0.95;;
30872;SDS011;17579;42.690;2.586;2022-09-09T03:44:33;1.77;;;1.02;;
30872;SDS011;17579;42.690;2.586;2022-09-09T03:46:59;1.52;;;1.02;;
30872;SDS011;17579;42.690;2.586;2022-09-09T03:49:26;1.60;;;1.10;;
30872;SDS011;17579;42.690;2.586;2022-09-09T03:51:54;1.95;;;0.98;;
30872;SDS011;17579;42.690;2.586;2022-09-09T03:54:21;2.50;;;0.95;;
30872;SDS011;17579;42.690;2.586;2022-09-09T03:56:48;2.72;;;1.00;;
30872;SDS011;17579;42.690;2.586;2022-09-09T03:59:13;0.70;;;0.70;;
30872;SDS011;17579;42.690;2.586;2022-09-09T04:01:39;2.78;;;1.02;;
30872;SDS011;17579;42.690;2.586;2022-09-09T04:04:05;1.70;;;0.85;;
30872;SDS011;17579;42.690;2.586;2022-09-09T04:06:30;2.25;;;0.73;;
30872;SDS011;17579;42.690;2.586;2022-09-09T04:08:56;1.05;;;0.80;;
30872;SDS011;17579;42.690;2.586;2022-09-09T04:11:21;3.03;;;0.95;;
30872;SDS011;17579;42.690;2.586;2022-09-09T04:13:47;6.18;;;1.38;;
30872;SDS011;17579;42.690;2.586;2022-09-09T04:16:12;1.38;;;0.82;;
30872;SDS011;17579;42.690;2.586;2022-09-09T04:18:38;1.50;;;1.08;;
30872;SDS011;17579;42.690;2.586;2022-09-09T04:21:04;1.40;;;0.90;;
30872;SDS011;17579;42.690;2.586;2022-09-09T04:23:31;1.17;;;0.80;;
30872;SDS011;17579;42.690;2.586;2022-09-09T04:25:59;2.38;;;0.98;;
30872;SDS011;17579;42.690;2.586;2022-09-09T04:28:27;2.05;;;1.08;;
30872;SDS011;17579;42.690;2.586;2022-09-09T04:30:55;1.00;;;0.90;;
30872;SDS011;17579;42.690;2.586;2022-09-09T04:33:23;2.50;;;0.90;;
30872;SDS011;17579;42.690;2.586;2022-09-09T04:35:51;0.98;;;0.75;;
30872;SDS011;17579;42.690;2.586;2022-09-09T04:38:19;1.45;;;0.90;;
30872;SDS011;17579;42.690;2.586;2022-09-09T04:40:48;2.95;;;1.17;;
30872;SDS011;17579;42.690;2.586;2022-09-09T04:43:16;2.15;;;0.88;;
30872;SDS011;17579;42.690;2.586;2022-09-09T04:45:42;2.00;;;0.80;;
30872;SDS011;17579;42.690;2.586;2022-09-09T04:48:08;1.63;;;0.88;;
30872;SDS011;17579;42.690;2.586;2022-09-09T04:50:34;1.15;;;0.82;;
30872;SDS011;17579;42.690;2.586;2022-09-09T04:53:01;2.25;;;1.13;;
30872;SDS011;17579;42.690;2.586;2022-09-09T04:55:27;3.40;;;1.10;;
30872;SDS011;17579;42.690;2.586;2022-09-09T04:57:52;1.48;;;1.10;;
30872;SDS011;17579;42.690;2.586;2022-09-09T05:00:19;4.03;;;1.60;;
30872;SDS011;17579;42.690;2.586;2022-09-09T05:02:44;2.40;;;1.10;;
30872;SDS011;17579;42.690;2.586;2022-09-09T05:05:10;3.25;;;1.00;;
30872;SDS011;17579;42.690;2.586;2022-09-09T05:07:36;0.90;;;0.80;;
30872;SDS011;17579;42.690;2.586;2022-09-09T05:10:02;1.98;;;1.05;;
30872;SDS011;17579;42.690;2.586;2022-09-09T05:12:30;1.73;;;1.10;;
30872;SDS011;17579;42.690;2.586;2022-09-09T05:14:56;1.85;;;0.98;;
30872;SDS011;17579;42.690;2.586;2022-09-09T05:17:22;1.70;;;0.85;;
30872;SDS011;17579;42.690;2.586;2022-09-09T05:19:47;1.25;;;1.08;;
30872;SDS011;17579;42.690;2.586;2022-09-09T05:22:18;2.70;;;1.33;;
30872;SDS011;17579;42.690;2.586;2022-09-09T05:24:48;2.75;;;1.33;;
30872;SDS011;17579;42.690;2.586;2022-09-09T05:27:16;2.50;;;1.10;;
30872;SDS011;17579;42.690;2.586;2022-09-09T05:29:43;2.45;;;1.30;;
30872;SDS011;17579;42.690;2.586;2022-09-09T05:32:09;1.83;;;0.98;;
30872;SDS011;17579;42.690;2.586;2022-09-09T05:34:35;1.95;;;1.10;;
30872;SDS011;17579;42.690;2.586;2022-09-09T05:37:02;2.05;;;1.10;;
30872;SDS011;17579;42.690;2.586;2022-09-09T05:39:28;1.73;;;1.20;;
30872;SDS011;17579;42.690;2.586;2022-09-09T05:41:53;1.63;;;0.82;;
30872;SDS011;17579;42.690;2.586;2022-09-09T05:44:20;2.70;;;1.30;;
30872;SDS011;17579;42.690;2.586;2022-09-09T05:46:48;2.65;;;0.90;;
30872;SDS011;17579;42.690;2.586;2022-09-09T05:49:14;1.20;;;1.00;;
30872;SDS011;17579;42.690;2.586;2022-09-09T05:51:40;1.80;;;1.25;;
30872;SDS011;17579;42.690;2.586;2022-09-09T05:54:08;3.90;;;1.23;;
30872;SDS011;17579;42.690;2.586;2022-09-09T05:56:34;4.60;;;1.38;;
30872;SDS011;17579;42.690;2.586;2022-09-09T05:58:59;1.63;;;1.10;;
30872;SDS011;17579;42.690;2.586;2022-09-09T06:01:26;1.30;;;1.05;;
30872;SDS011;17579;42.690;2.586;2022-09-09T06:03:57;2.50;;;0.85;;
30872;SDS011;17579;42.690;2.586;2022-09-09T06:06:25;3.53;;;1.00;;
30872;SDS011;17579;42.690;2.586;2022-09-09T06:08:53;8.50;;;1.20;;
30872;SDS011;17579;42.690;2.586;2022-09-09T06:11:23;2.90;;;1.00;;
30872;SDS011;17579;42.690;2.586;2022-09-09T06:13:50;1.60;;;1.00;;
30872;SDS011;17579;42.690;2.586;2022-09-09T06:16:19;1.83;;;1.02;;
30872;SDS011;17579;42.690;2.586;2022-09-09T06:18:48;1.65;;;1.30;;
30872;SDS011;17579;42.690;2.586;2022-09-09T06:21:16;2.08;;;1.10;;
30872;SDS011;17579;42.690;2.586;2022-09-09T06:23:43;1.08;;;0.98;;
30872;SDS011;17579;42.690;2.586;2022-09-09T06:26:13;1.55;;;1.08;;
30872;SDS011;17579;42.690;2.586;2022-09-09T06:28:42;1.42;;;1.00;;
30872;SDS011;17579;42.690;2.586;2022-09-09T06:31:08;4.55;;;1.00;;
30872;SDS011;17579;42.690;2.586;2022-09-09T06:33:37;1.50;;;1.00;;
30872;SDS011;17579;42.690;2.586;2022-09-09T06:36:06;1.58;;;1.10;;
30872;SDS011;17579;42.690;2.586;2022-09-09T06:38:36;2.67;;;1.38;;
30872;SDS011;17579;42.690;2.586;2022-09-09T06:41:02;2.35;;;1.35;;
30872;SDS011;17579;42.690;2.586;2022-09-09T06:43:28;2.72;;;1.40;;
30872;SDS011;17579;42.690;2.586;2022-09-09T06:45:56;1.40;;;1.02;;
30872;SDS011;17579;42.690;2.586;2022-09-09T06:48:23;1.75;;;1.20;;
30872;SDS011;17579;42.690;2.586;2022-09-09T06:50:51;2.75;;;1.02;;
30872;SDS011;17579;42.690;2.586;2022-09-09T06:53:25;1.90;;;1.10;;
30872;SDS011;17579;42.690;2.586;2022-09-09T06:55:52;1.30;;;1.10;;
30872;SDS011;17579;42.690;2.586;2022-09-09T06:58:18;2.83;;;1.35;;
30872;SDS011;17579;42.690;2.586;2022-09-09T07:00:43;4.07;;;1.05;;
30872;SDS011;17579;42.690;2.586;2022-09-09T07:03:09;1.73;;;1.08;;
30872;SDS011;17579;42.690;2.586;2022-09-09T07:05:36;1.45;;;1.10;;
30872;SDS011;17579;42.690;2.586;2022-09-09T07:08:02;2.80;;;1.00;;
30872;SDS011;17579;42.690;2.586;2022-09-09T07:10:29;0.98;;;0.75;;
30872;SDS011;17579;42.690;2.586;2022-09-09T07:12:56;8.20;;;1.40;;
30872;SDS011;17579;42.690;2.586;2022-09-09T07:15:22;1.75;;;1.10;;
30872;SDS011;17579;42.690;2.586;2022-09-09T07:17:48;1.17;;;1.02;;
30872;SDS011;17579;42.690;2.586;2022-09-09T07:20:14;2.03;;;0.93;;
30872;SDS011;17579;42.690;2.586;2022-09-09T07:22:41;1.17;;;1.08;;
30872;SDS011;17579;42.690;2.586;2022-09-09T07:25:07;2.10;;;1.10;;
30872;SDS011;17579;42.690;2.586;2022-09-09T07:27:33;1.63;;;0.88;;
30872;SDS011;17579;42.690;2.586;2022-09-09T07:29:58;1.20;;;1.00;;
30872;SDS011;17579;42.690;2.586;2022-09-09T07:32:24;1.52;;;1.00;;
30872;SDS011;17579;42.690;2.586;2022-09-09T07:34:50;1.08;;;0.95;;
30872;SDS011;17579;42.690;2.586;2022-09-09T07:37:16;1.63;;;1.20;;
30872;SDS011;17579;42.690;2.586;2022-09-09T07:39:42;2.13;;;1.10;;
30872;SDS011;17579;42.690;2.586;2022-09-09T07:42:09;2.03;;;0.80;;
30872;SDS011;17579;42.690;2.586;2022-09-09T07:44:36;1.65;;;1.10;;
30872;SDS011;17579;42.690;2.586;2022-09-09T07:47:04;0.85;;;0.82;;
30872;SDS011;17579;42.690;2.586;2022-09-09T07:49:30;0.82;;;0.80;;
30872;SDS011;17579;42.690;2.586;2022-09-09T07:51:56;1.98;;;0.90;;
30872;SDS011;17579;42.690;2.586;2022-09-09T07:54:22;0.80;;;0.73;;
30872;SDS011;17579;42.690;2.586;2022-09-09T07:56:48;1.15;;;0.73;;
30872;SDS011;17579;42.690;2.586;2022-09-09T07:59:14;2.20;;;0.90;;
30872;SDS011;17579;42.690;2.586;2022-09-09T08:01:45;1.17;;;1.00;;
30872;SDS011;17579;42.690;2.586;2022-09-09T08:04:17;2.88;;;0.95;;
30872;SDS011;17579;42.690;2.586;2022-09-09T08:06:44;1.40;;;0.80;;
30872;SDS011;17579;42.690;2.586;2022-09-09T08:09:13;2.65;;;0.70;;
30872;SDS011;17579;42.690;2.586;2022-09-09T08:11:39;1.75;;;1.02;;
30872;SDS011;17579;42.690;2.586;2022-09-09T08:14:06;1.92;;;0.95;;
30872;SDS011;17579;42.690;2.586;2022-09-09T08:16:37;0.70;;;0.65;;
30872;SDS011;17579;42.690;2.586;2022-09-09T08:19:05;2.38;;;1.10;;
30872;SDS011;17579;42.690;2.586;2022-09-09T08:21:32;1.65;;;0.90;;
30872;SDS011;17579;42.690;2.586;2022-09-09T08:23:59;1.85;;;0.98;;
30872;SDS011;17579;42.690;2.586;2022-09-09T08:26:36;1.33;;;0.98;;
30872;SDS011;17579;42.690;2.586;2022-09-09T08:29:04;2.25;;;1.10;;
30872;SDS011;17579;42.690;2.586;2022-09-09T08:31:35;2.60;;;0.90;;
30872;SDS011;17579;42.690;2.586;2022-09-09T08:34:03;1.30;;;0.80;;
30872;SDS011;17579;42.690;2.586;2022-09-09T08:36:30;1.02;;;0.90;;
30872;SDS011;17579;42.690;2.586;2022-09-09T08:39:02;0.80;;;0.80;;
30872;SDS011;17579;42.690;2.586;2022-09-09T08:44:41;1.67;;;0.88;;
30872;SDS011;17579;42.690;2.586;2022-09-09T08:53:04;2.05;;;0.90;;
30872;SDS011;17579;42.690;2.586;2022-09-09T08:55:39;1.50;;;0.90;;
30872;SDS011;17579;42.690;2.586;2022-09-09T08:58:19;2.28;;;1.00;;
30872;SDS011;17579;42.690;2.586;2022-09-09T09:01:10;1.80;;;0.90;;
30872;SDS011;17579;42.690;2.586;2022-09-09T09:10:01;2.22;;;0.90;;
30872;SDS011;17579;42.690;2.586;2022-09-09T09:12:41;1.98;;;0.90;;
30872;SDS011;17579;42.690;2.586;2022-09-09T09:15:20;2.25;;;0.70;;
30872;SDS011;17579;42.690;2.586;2022-09-09T09:17:50;3.33;;;0.93;;
30872;SDS011;17579;42.690;2.586;2022-09-09T09:20:16;0.90;;;0.90;;
30872;SDS011;17579;42.690;2.586;2022-09-09T09:22:51;0.80;;;0.80;;
30872;SDS011;17579;42.690;2.586;2022-09-09T09:25:21;0.80;;;0.70;;
30872;SDS011;17579;42.690;2.586;2022-09-09T09:27:57;2.13;;;1.05;;
30872;SDS011;17579;42.690;2.586;2022-09-09T09:30:50;1.05;;;0.95;;
30872;SDS011;17579;42.690;2.586;2022-09-09T09:33:29;1.05;;;0.80;;
30872;SDS011;17579;42.690;2.586;2022-09-09T09:36:06;1.80;;;1.08;;
30872;SDS011;17579;42.690;2.586;2022-09-09T09:38:33;1.95;;;1.00;;
30872;SDS011;17579;42.690;2.586;2022-09-09T09:41:00;0.98;;;0.85;;
30872;SDS011;17579;42.690;2.586;2022-09-09T09:43:31;1.10;;;1.00;;
30872;SDS011;17579;42.690;2.586;2022-09-09T09:45:59;2.53;;;1.50;;
30872;SDS011;17579;42.690;2.586;2022-09-09T09:48:25;3.13;;;0.90;;
30872;SDS011;17579;42.690;2.586;2022-09-09T09:50:56;2.10;;;1.00;;
30872;SDS011;17579;42.690;2.586;2022-09-09T09:53:32;4.10;;;1.08;;
30872;SDS011;17579;42.690;2.586;2022-09-09T09:56:05;1.30;;;0.90;;
30872;SDS011;17579;42.690;2.586;2022-09-09T09:58:49;0.90;;;0.90;;
30872;SDS011;17579;42.690;2.586;2022-09-09T10:04:00;1.15;;;1.00;;
30872;SDS011;17579;42.690;2.586;2022-09-09T10:06:34;1.15;;;0.80;;
30872;SDS011;17579;42.690;2.586;2022-09-09T10:09:03;3.95;;;1.10;;
30872;SDS011;17579;42.690;2.586;2022-09-09T10:11:50;0.95;;;0.73;;
30872;SDS011;17579;42.690;2.586;2022-09-09T10:14:32;1.15;;;0.85;;
30872;SDS011;17579;42.690;2.586;2022-09-09T10:17:21;1.98;;;0.88;;
30872;SDS011;17579;42.690;2.586;2022-09-09T10:20:20;1.10;;;1.00;;
30872;SDS011;17579;42.690;2.586;2022-09-09T10:23:15;2.30;;;0.75;;
30872;SDS011;17579;42.690;2.586;2022-09-09T10:29:02;1.20;;;1.00;;
30872;SDS011;17579;42.690;2.586;2022-09-09T10:31:55;1.17;;;1.05;;
30872;SDS011;17579;42.690;2.586;2022-09-09T10:34:50;1.83;;;1.08;;
30872;SDS011;17579;42.690;2.586;2022-09-09T10:37:32;1.77;;;1.20;;
30872;SDS011;17579;42.690;2.586;2022-09-09T10:43:06;1.40;;;1.23;;
30872;SDS011;17579;42.690;2.586;2022-09-09T10:51:51;1.38;;;1.08;;
30872;SDS011;17579;42.690;2.586;2022-09-09T10:54:46;2.55;;;1.38;;
30872;SDS011;17579;42.690;2.586;2022-09-09T11:00:15;2.00;;;0.93;;
30872;SDS011;17579;42.690;2.586;2022-09-09T11:02:45;1.17;;;1.00;;
30872;SDS011;17579;42.690;2.586;2022-09-09T11:05:20;3.35;;;1.38;;
30872;SDS011;17579;42.690;2.586;2022-09-09T11:08:26;1.08;;;0.95;;
30872;SDS011;17579;42.690;2.586;2022-09-09T11:10:58;1.10;;;1.00;;
30872;SDS011;17579;42.690;2.586;2022-09-09T11:21:59;1.33;;;0.93;;
30872;SDS011;17579;42.690;2.586;2022-09-09T11:24:40;2.63;;;1.02;;
30872;SDS011;17579;42.690;2.586;2022-09-09T11:27:19;2.83;;;0.95;;
30872;SDS011;17579;42.690;2.586;2022-09-09T11:32:59;1.48;;;1.00;;
30872;SDS011;17579;42.690;2.586;2022-09-09T11:35:45;1.45;;;1.10;;
30872;SDS011;17579;42.690;2.586;2022-09-09T11:38:32;1.15;;;0.88;;
30872;SDS011;17579;42.690;2.586;2022-09-09T11:41:19;0.80;;;0.80;;
30872;SDS011;17579;42.690;2.586;2022-09-09T11:43:59;1.15;;;0.90;;
30872;SDS011;17579;42.690;2.586;2022-09-09T11:46:36;1.13;;;0.88;;
30872;SDS011;17579;42.690;2.586;2022-09-09T11:49:05;1.58;;;0.80;;
30872;SDS011;17579;42.690;2.586;2022-09-09T11:51:33;1.50;;;1.00;;
30872;SDS011;17579;42.690;2.586;2022-09-09T11:56:49;1.75;;;1.10;;
30872;SDS011;17579;42.690;2.586;2022-09-09T11:59:22;2.30;;;1.20;;
30872;SDS011;17579;42.690;2.586;2022-09-09T12:01:50;1.23;;;1.08;;
30872;SDS011;17579;42.690;2.586;2022-09-09T12:04:30;0.90;;;0.90;;
30872;SDS011;17579;42.690;2.586;2022-09-09T12:12:50;1.17;;;1.05;;
30872;SDS011;17579;42.690;2.586;2022-09-09T12:15:18;0.93;;;0.82;;
30872;SDS011;17579;42.690;2.586;2022-09-09T12:17:54;1.63;;;1.00;;
30872;SDS011;17579;42.690;2.586;2022-09-09T12:32:11;1.70;;;1.10;;
30872;SDS011;17579;42.690;2.586;2022-09-09T12:34:47;1.00;;;0.90;;
30872;SDS011;17579;42.690;2.586;2022-09-09T12:37:35;2.35;;;1.00;;
30872;SDS011;17579;42.690;2.586;2022-09-09T12:42:49;1.92;;;1.00;;
30872;SDS011;17579;42.690;2.586;2022-09-09T12:45:22;1.85;;;1.00;;
30872;SDS011;17579;42.690;2.586;2022-09-09T12:48:03;1.95;;;1.02;;
30872;SDS011;17579;42.690;2.586;2022-09-09T12:50:43;2.63;;;1.02;;
30872;SDS011;17579;42.690;2.586;2022-09-09T12:53:25;3.42;;;0.95;;
30872;SDS011;17579;42.690;2.586;2022-09-09T12:56:07;1.63;;;0.98;;
30872;SDS011;17579;42.690;2.586;2022-09-09T12:58:52;2.67;;;1.08;;
30872;SDS011;17579;42.690;2.586;2022-09-09T13:01:28;1.15;;;0.90;;
30872;SDS011;17579;42.690;2.586;2022-09-09T13:06:45;1.60;;;1.13;;
30872;SDS011;17579;42.690;2.586;2022-09-09T13:09:10;2.08;;;0.98;;
30872;SDS011;17579;42.690;2.586;2022-09-09T13:11:37;1.10;;;1.00;;
30872;SDS011;17579;42.690;2.586;2022-09-09T13:14:15;2.83;;;0.93;;
30872;SDS011;17579;42.690;2.586;2022-09-09T13:16:53;3.42;;;0.73;;
30872;SDS011;17579;42.690;2.586;2022-09-09T13:19:21;1.58;;;0.70;;
30872;SDS011;17579;42.690;2.586;2022-09-09T13:21:46;2.13;;;0.90;;
30872;SDS011;17579;42.690;2.586;2022-09-09T13:27:00;1.15;;;1.00;;
30872;SDS011;17579;42.690;2.586;2022-09-09T13:29:28;2.15;;;1.00;;
30872;SDS011;17579;42.690;2.586;2022-09-09T13:32:03;2.25;;;0.98;;
30872;SDS011;17579;42.690;2.586;2022-09-09T13:34:35;2.92;;;0.90;;
30872;SDS011;17579;42.690;2.586;2022-09-09T13:37:02;1.70;;;0.98;;
30872;SDS011;17579;42.690;2.586;2022-09-09T13:39:33;1.35;;;0.70;;
30872;SDS011;17579;42.690;2.586;2022-09-09T13:42:01;0.98;;;0.70;;
30872;SDS011;17579;42.690;2.586;2022-09-09T13:44:35;1.05;;;0.70;;
30872;SDS011;17579;42.690;2.586;2022-09-09T13:47:05;1.05;;;0.90;;
30872;SDS011;17579;42.690;2.586;2022-09-09T13:49:51;1.52;;;0.70;;
30872;SDS011;17579;42.690;2.586;2022-09-09T13:52:17;1.92;;;0.80;;
30872;SDS011;17579;42.690;2.586;2022-09-09T13:54:50;3.97;;;0.70;;
30872;SDS011;17579;42.690;2.586;2022-09-09T13:57:20;0.75;;;0.75;;
30872;SDS011;17579;42.690;2.586;2022-09-09T13:59:48;0.60;;;0.60;;
30872;SDS011;17579;42.690;2.586;2022-09-09T14:02:15;0.82;;;0.60;;
30872;SDS011;17579;42.690;2.586;2022-09-09T14:04:42;1.45;;;0.60;;
30872;SDS011;17579;42.690;2.586;2022-09-09T14:07:11;0.90;;;0.50;;
30872;SDS011;17579;42.690;2.586;2022-09-09T14:09:38;0.43;;;0.40;;
30872;SDS011;17579;42.690;2.586;2022-09-09T14:12:05;1.30;;;0.50;;
30872;SDS011;17579;42.690;2.586;2022-09-09T14:14:33;0.85;;;0.60;;
30872;SDS011;17579;42.690;2.586;2022-09-09T14:16:59;0.40;;;0.40;;
30872;SDS011;17579;42.690;2.586;2022-09-09T14:19:24;2.13;;;0.52;;
30872;SDS011;17579;42.690;2.586;2022-09-09T14:21:50;0.20;;;0.20;;
30872;SDS011;17579;42.690;2.586;2022-09-09T14:24:15;0.40;;;0.40;;
30872;SDS011;17579;42.690;2.586;2022-09-09T14:26:41;0.30;;;0.30;;
30872;SDS011;17579;42.690;2.586;2022-09-09T14:29:06;0.38;;;0.38;;
30872;SDS011;17579;42.690;2.586;2022-09-09T14:31:32;0.50;;;0.45;;
30872;SDS011;17579;42.690;2.586;2022-09-09T14:33:58;0.30;;;0.30;;
30872;SDS011;17579;42.690;2.586;2022-09-09T14:36:30;0.30;;;0.30;;
30872;SDS011;17579;42.690;2.586;2022-09-09T14:38:58;1.17;;;0.30;;
30872;SDS011;17579;42.690;2.586;2022-09-09T14:41:31;0.30;;;0.30;;
30872;SDS011;17579;42.690;2.586;2022-09-09T14:44:02;0.30;;;0.30;;
30872;SDS011;17579;42.690;2.586;2022-09-09T14:46:35;0.20;;;0.20;;
30872;SDS011;17579;42.690;2.586;2022-09-09T14:49:03;0.20;;;0.20;;
30872;SDS011;17579;42.690;2.586;2022-09-09T14:51:36;0.25;;;0.25;;
30872;SDS011;17579;42.690;2.586;2022-09-09T14:54:01;0.25;;;0.22;;
30872;SDS011;17579;42.690;2.586;2022-09-09T14:56:34;0.45;;;0.38;;
30872;SDS011;17579;42.690;2.586;2022-09-09T14:59:00;0.10;;;0.10;;
30872;SDS011;17579;42.690;2.586;2022-09-09T15:01:29;0.52;;;0.35;;
30872;SDS011;17579;42.690;2.586;2022-09-09T15:03:57;0.28;;;0.28;;
30872;SDS011;17579;42.690;2.586;2022-09-09T15:06:29;0.10;;;0.10;;
30872;SDS011;17579;42.690;2.586;2022-09-09T15:08:58;0.30;;;0.30;;
30872;SDS011;17579;42.690;2.586;2022-09-09T15:11:34;0.22;;;0.20;;
30872;SDS011;17579;42.690;2.586;2022-09-09T15:14:04;0.10;;;0.10;;
30872;SDS011;17579;42.690;2.586;2022-09-09T15:16:37;0.17;;;0.17;;
30872;SDS011;17579;42.690;2.586;2022-09-09T15:19:07;0.43;;;0.13;;
30872;SDS011;17579;42.690;2.586;2022-09-09T15:21:35;0.35;;;0.10;;
30872;SDS011;17579;42.690;2.586;2022-09-09T15:24:01;1.63;;;0.20;;
30872;SDS011;17579;42.690;2.586;2022-09-09T15:26:32;1.52;;;0.63;;
30872;SDS011;17579;42.690;2.586;2022-09-09T15:28:58;0.60;;;0.40;;
30872;SDS011;17579;42.690;2.586;2022-09-09T15:31:25;1.08;;;0.65;;
30872;SDS011;17579;42.690;2.586;2022-09-09T15:33:56;0.88;;;0.50;;
30872;SDS011;17579;42.690;2.586;2022-09-09T15:36:28;1.17;;;0.50;;
30872;SDS011;17579;42.690;2.586;2022-09-09T15:38:55;1.70;;;0.50;;
30872;SDS011;17579;42.690;2.586;2022-09-09T15:41:22;0.43;;;0.43;;
30872;SDS011;17579;42.690;2.586;2022-09-09T15:43:49;2.15;;;0.80;;
30872;SDS011;17579;42.690;2.586;2022-09-09T15:46:24;1.00;;;0.65;;
30872;SDS011;17579;42.690;2.586;2022-09-09T15:48:55;0.93;;;0.73;;
30872;SDS011;17579;42.690;2.586;2022-09-09T15:51:29;2.65;;;0.60;;
30872;SDS011;17579;42.690;2.586;2022-09-09T15:53:56;1.92;;;0.82;;
30872;SDS011;17579;42.690;2.586;2022-09-09T15:56:29;4.78;;;0.90;;
30872;SDS011;17579;42.690;2.586;2022-09-09T15:59:00;1.27;;;0.60;;
30872;SDS011;17579;42.690;2.586;2022-09-09T16:01:28;1.15;;;0.63;;
30872;SDS011;17579;42.690;2.586;2022-09-09T16:03:54;1.20;;;0.70;;
30872;SDS011;17579;42.690;2.586;2022-09-09T16:06:28;2.13;;;0.80;;
30872;SDS011;17579;42.690;2.586;2022-09-09T16:08:58;1.48;;;0.70;;
30872;SDS011;17579;42.690;2.586;2022-09-09T16:11:34;3.70;;;0.88;;
30872;SDS011;17579;42.690;2.586;2022-09-09T16:14:04;1.40;;;0.70;;
30872;SDS011;17579;42.690;2.586;2022-09-09T16:16:31;2.22;;;0.80;;
30872;SDS011;17579;42.690;2.586;2022-09-09T16:18:58;2.88;;;0.82;;
30872;SDS011;17579;42.690;2.586;2022-09-09T16:24:07;0.70;;;0.70;;
30872;SDS011;17579;42.690;2.586;2022-09-09T16:26:35;2.17;;;1.05;;
30872;SDS011;17579;42.690;2.586;2022-09-09T16:29:03;2.97;;;1.20;;
30872;SDS011;17579;42.690;2.586;2022-09-09T16:31:30;3.65;;;0.70;;
30872;SDS011;17579;42.690;2.586;2022-09-09T16:33:57;2.60;;;0.80;;
30872;SDS011;17579;42.690;2.586;2022-09-09T16:36:27;2.20;;;0.85;;
30872;SDS011;17579;42.690;2.586;2022-09-09T16:38:58;0.98;;;0.70;;
30872;SDS011;17579;42.690;2.586;2022-09-09T16:41:29;2.47;;;1.15;;
30872;SDS011;17579;42.690;2.586;2022-09-09T16:43:55;1.35;;;0.80;;
30872;SDS011;17579;42.690;2.586;2022-09-09T16:46:27;0.77;;;0.68;;
30872;SDS011;17579;42.690;2.586;2022-09-09T16:49:00;2.75;;;1.25;;
30872;SDS011;17579;42.690;2.586;2022-09-09T16:51:33;0.82;;;0.60;;
30872;SDS011;17579;42.690;2.586;2022-09-09T16:54:01;0.82;;;0.68;;
30872;SDS011;17579;42.690;2.586;2022-09-09T16:56:30;0.63;;;0.63;;
30872;SDS011;17579;42.690;2.586;2022-09-09T16:59:02;0.90;;;0.82;;
30872;SDS011;17579;42.690;2.586;2022-09-09T17:01:31;1.05;;;0.70;;
30872;SDS011;17579;42.690;2.586;2022-09-09T17:04:00;0.88;;;0.65;;